Time;durP1;ratioP1;P1;durP2;ratioP2;P2;SDS_P1;SDS_P2;PMS_P1;PMS_P2;Temp;Humidity;BMP_temperature;BMP_pressure;BME280_temperature;BME280_humidity;BME280_pressure;Samples;Min_cycle;Max_cycle;Signal;HPM_P1;HPM_P2
2021/08/19 00:01:39;;;;;;;7.30;2.87;;;18.00;99.90;;;;;;5078003;28;20245;-79
2021/08/19 00:04:06;;;;;;;4.07;2.63;;;18.00;99.90;;;;;;5084861;28;20195;-80
2021/08/19 00:06:33;;;;;;;5.97;2.80;;;18.00;99.90;;;;;;5090582;28;20226;-80
2021/08/19 00:09:00;;;;;;;6.27;2.73;;;18.00;99.90;;;;;;5094211;28;20195;-80
2021/08/19 00:11:27;;;;;;;7.37;2.80;;;18.00;99.90;;;;;;5086398;28;20332;-79
2021/08/19 00:13:54;;;;;;;7.37;3.10;;;17.90;99.90;;;;;;5078112;28;20282;-79
2021/08/19 00:16:21;;;;;;;5.37;2.40;;;17.90;99.90;;;;;;5081582;28;20287;-78
2021/08/19 00:18:49;;;;;;;6.43;2.50;;;17.90;99.90;;;;;;5082846;28;20293;-79
2021/08/19 00:21:16;;;;;;;7.93;2.70;;;17.90;99.90;;;;;;5088103;28;20649;-80
2021/08/19 00:23:43;;;;;;;4.57;2.80;;;17.90;99.90;;;;;;5076177;28;20294;-79
2021/08/19 00:26:10;;;;;;;9.43;2.80;;;17.80;99.90;;;;;;5094260;28;20200;-78
2021/08/19 00:28:37;;;;;;;6.30;2.67;;;17.70;99.90;;;;;;5094993;28;20896;-80
2021/08/19 00:31:04;;;;;;;5.73;3.10;;;17.80;99.90;;;;;;5095225;28;20294;-79
2021/08/19 00:33:31;;;;;;;4.23;2.50;;;17.80;99.90;;;;;;5093663;28;20728;-79
2021/08/19 00:35:59;;;;;;;3.53;2.70;;;17.80;99.90;;;;;;5094584;28;20213;-79
2021/08/19 00:38:26;;;;;;;5.97;3.27;;;17.90;99.90;;;;;;5087690;28;20257;-79
2021/08/19 00:40:53;;;;;;;6.80;2.67;;;17.80;99.90;;;;;;5095621;28;20294;-78
2021/08/19 00:43:21;;;;;;;6.73;2.70;;;17.80;99.90;;;;;;5094499;28;20195;-78
2021/08/19 00:45:48;;;;;;;6.00;2.80;;;17.80;99.90;;;;;;5078028;28;20290;-79
2021/08/19 00:48:15;;;;;;;6.77;2.77;;;17.80;99.90;;;;;;5081061;28;20227;-80
2021/08/19 00:50:44;;;;;;;7.10;2.87;;;17.80;99.90;;;;;;5078923;28;20641;-79
2021/08/19 00:53:12;;;;;;;5.37;2.90;;;17.80;99.90;;;;;;5086360;28;20260;-80
2021/08/19 00:55:39;;;;;;;7.03;2.47;;;17.80;99.90;;;;;;5095286;28;20190;-80
2021/08/19 00:58:06;;;;;;;5.70;2.63;;;17.90;99.90;;;;;;5089592;28;20556;-81
2021/08/19 01:00:34;;;;;;;8.13;2.83;;;17.80;99.90;;;;;;5077780;28;20286;-80
2021/08/19 01:03:01;;;;;;;8.00;2.57;;;17.80;99.90;;;;;;5088598;28;20206;-80
2021/08/19 01:05:30;;;;;;;5.00;2.40;;;17.80;99.90;;;;;;5082880;28;20203;-80
2021/08/19 01:07:58;;;;;;;9.57;2.60;;;17.80;99.90;;;;;;5076920;28;20644;-79
2021/08/19 01:10:28;;;;;;;7.90;2.80;;;17.70;99.90;;;;;;5078931;28;20199;-80
2021/08/19 01:12:55;;;;;;;5.57;2.50;;;17.70;99.90;;;;;;5089873;28;20267;-81
2021/08/19 01:15:22;;;;;;;7.20;2.73;;;17.70;99.90;;;;;;5091668;28;20225;-80
2021/08/19 01:17:56;;;;;;;7.17;2.60;;;17.70;99.90;;;;;;5092635;28;20233;-80
2021/08/19 01:20:28;;;;;;;7.23;2.90;;;17.70;99.90;;;;;;5091532;28;20367;-80
2021/08/19 01:22:57;;;;;;;6.40;2.73;;;17.80;99.90;;;;;;5088185;28;20209;-78
2021/08/19 01:25:24;;;;;;;7.10;2.70;;;17.80;99.90;;;;;;5085601;28;20203;-79
2021/08/19 01:27:54;;;;;;;8.57;3.63;;;17.70;99.90;;;;;;5086532;28;20238;-78
2021/08/19 01:30:22;;;;;;;5.10;3.10;;;17.70;99.90;;;;;;5092362;28;20549;-78
2021/08/19 01:32:49;;;;;;;11.30;2.90;;;17.70;99.90;;;;;;5091911;28;20715;-77
2021/08/19 01:35:21;;;;;;;10.73;3.40;;;17.70;99.90;;;;;;5079884;28;20610;-80
2021/08/19 01:37:48;;;;;;;5.60;2.67;;;17.70;99.90;;;;;;5079789;28;20199;-80
2021/08/19 01:40:15;;;;;;;8.90;3.10;;;17.70;99.90;;;;;;5085023;28;20271;-79
2021/08/19 01:42:43;;;;;;;6.17;3.10;;;17.70;99.90;;;;;;5074398;28;20282;-79
2021/08/19 01:45:12;;;;;;;4.97;2.90;;;17.80;99.90;;;;;;5075357;28;20629;-78
2021/08/19 01:47:40;;;;;;;7.63;3.10;;;17.70;99.90;;;;;;5075722;28;20650;-79
2021/08/19 01:50:07;;;;;;;7.97;3.63;;;17.70;99.90;;;;;;5078356;28;20281;-80
2021/08/19 01:52:35;;;;;;;9.10;3.60;;;17.90;99.90;;;;;;5092763;28;20306;-79
2021/08/19 01:55:03;;;;;;;4.90;3.30;;;17.80;99.90;;;;;;5092928;28;20230;-79
2021/08/19 01:57:30;;;;;;;8.40;3.60;;;17.70;99.90;;;;;;5092885;28;20605;-79
2021/08/19 01:59:57;;;;;;;7.63;3.70;;;17.70;99.90;;;;;;5092931;28;20222;-79
2021/08/19 02:02:25;;;;;;;6.90;3.60;;;17.70;99.90;;;;;;5084704;28;20289;-80
2021/08/19 02:04:52;;;;;;;7.33;3.17;;;17.80;99.90;;;;;;5092806;28;20290;-79
2021/08/19 02:07:18;;;;;;;6.10;3.33;;;17.80;99.90;;;;;;5093284;28;20728;-80
2021/08/19 02:09:45;;;;;;;6.87;3.87;;;17.70;99.90;;;;;;5094352;28;20660;-79
2021/08/19 02:12:12;;;;;;;7.73;3.73;;;17.70;99.90;;;;;;5110406;28;20225;-78
2021/08/19 02:14:39;;;;;;;8.37;3.93;;;17.70;99.90;;;;;;5110425;28;20223;-78
2021/08/19 02:17:06;;;;;;;8.13;4.33;;;17.70;99.90;;;;;;5096138;28;20248;-78
2021/08/19 02:19:34;;;;;;;13.07;4.20;;;17.60;99.90;;;;;;5116504;28;20215;-80
2021/08/19 02:22:01;;;;;;;10.53;4.13;;;17.70;99.90;;;;;;5115452;28;20283;-79
2021/08/19 02:24:28;;;;;;;7.70;4.10;;;17.70;99.90;;;;;;5116416;28;20199;-76
2021/08/19 02:26:55;;;;;;;10.07;4.37;;;17.60;99.90;;;;;;5115335;28;20203;-79
2021/08/19 02:29:22;;;;;;;6.90;3.70;;;17.60;99.90;;;;;;5117002;28;20258;-78
2021/08/19 02:31:49;;;;;;;13.30;5.33;;;17.60;99.90;;;;;;5115312;28;20223;-80
2021/08/19 02:34:16;;;;;;;12.87;4.70;;;17.70;99.90;;;;;;5097031;28;20203;-78
2021/08/19 02:36:45;;;;;;;10.80;4.87;;;17.70;99.90;;;;;;5096475;28;20234;-80
2021/08/19 02:39:12;;;;;;;9.83;4.57;;;17.60;99.90;;;;;;5096262;28;20287;-78
2021/08/19 02:41:38;;;;;;;8.77;4.57;;;17.60;99.90;;;;;;5096455;28;20301;-79
2021/08/19 02:44:06;;;;;;;9.53;5.07;;;17.60;99.90;;;;;;5102262;28;20237;-77
2021/08/19 02:46:33;;;;;;;10.87;4.83;;;17.60;99.90;;;;;;5104193;28;20202;-80
2021/08/19 02:49:00;;;;;;;8.90;4.70;;;17.50;99.90;;;;;;5096216;28;20205;-79
2021/08/19 02:51:26;;;;;;;9.57;4.83;;;17.50;99.90;;;;;;5096096;28;20284;-79
2021/08/19 02:53:55;;;;;;;8.20;4.80;;;17.60;99.90;;;;;;5095544;28;20265;-80
2021/08/19 02:56:23;;;;;;;10.03;5.07;;;17.60;99.90;;;;;;5095533;28;20274;-78
2021/08/19 02:58:49;;;;;;;13.10;4.57;;;17.70;99.90;;;;;;5095883;28;20234;-79
2021/08/19 03:01:16;;;;;;;11.63;4.63;;;17.60;99.90;;;;;;5095894;28;20293;-81
2021/08/19 03:03:43;;;;;;;8.10;4.40;;;17.60;99.90;;;;;;5095613;28;20230;-80
2021/08/19 03:06:10;;;;;;;12.37;5.03;;;17.60;99.90;;;;;;5095229;28;20293;-80
2021/08/19 03:08:37;;;;;;;11.07;5.07;;;17.50;99.90;;;;;;5095602;28;20222;-78
2021/08/19 03:11:05;;;;;;;9.97;5.23;;;17.50;99.90;;;;;;5095487;28;20253;-79
2021/08/19 03:13:32;;;;;;;16.73;5.73;;;17.50;99.90;;;;;;5095481;28;20261;-79
2021/08/19 03:15:59;;;;;;;9.37;5.10;;;17.50;99.90;;;;;;5095589;28;20214;-81
2021/08/19 03:18:26;;;;;;;12.77;5.50;;;17.50;99.90;;;;;;5095191;28;20556;-80
2021/08/19 03:20:53;;;;;;;11.73;5.20;;;17.40;99.90;;;;;;5095224;28;20222;-79
2021/08/19 03:23:20;;;;;;;13.27;5.27;;;17.40;99.90;;;;;;5095004;28;20293;-79
2021/08/19 03:25:47;;;;;;;9.73;5.10;;;17.40;99.90;;;;;;5095328;28;20235;-77
2021/08/19 03:28:15;;;;;;;12.07;5.20;;;17.40;99.90;;;;;;5095100;28;20229;-78
2021/08/19 03:30:42;;;;;;;8.77;4.50;;;17.40;99.90;;;;;;5095042;28;20227;-81
2021/08/19 03:33:09;;;;;;;7.77;4.93;;;17.40;99.90;;;;;;5095202;28;20222;-78
2021/08/19 03:35:36;;;;;;;10.10;5.03;;;17.50;99.90;;;;;;5095228;28;20615;-78
2021/08/19 03:38:05;;;;;;;12.93;5.50;;;17.40;99.90;;;;;;5094837;28;20199;-77
2021/08/19 03:40:33;;;;;;;11.17;4.93;;;17.40;99.90;;;;;;5094715;28;20205;-79
2021/08/19 03:43:00;;;;;;;8.47;4.80;;;17.50;99.90;;;;;;5094650;28;20202;-78
2021/08/19 03:45:28;;;;;;;10.53;4.80;;;17.50;99.90;;;;;;5094567;28;20625;-79
2021/08/19 03:47:55;;;;;;;7.17;4.53;;;17.40;99.90;;;;;;5094702;28;20256;-79
2021/08/19 03:50:22;;;;;;;7.87;4.50;;;17.50;99.90;;;;;;5094385;28;20586;-78
2021/08/19 03:52:50;;;;;;;12.50;5.03;;;17.50;99.90;;;;;;5094746;28;20323;-80
2021/08/19 03:55:17;;;;;;;9.27;4.77;;;17.50;99.90;;;;;;5094869;28;20203;-79
2021/08/19 03:57:46;;;;;;;6.17;4.47;;;17.40;99.90;;;;;;5094711;28;20285;-80
2021/08/19 04:00:15;;;;;;;10.53;4.47;;;17.50;99.90;;;;;;5094668;28;20562;-79
2021/08/19 04:02:44;;;;;;;9.73;4.30;;;17.50;99.90;;;;;;5093984;28;20732;-80
2021/08/19 04:05:11;;;;;;;8.83;4.13;;;17.40;99.90;;;;;;5094669;28;20199;-79
2021/08/19 04:07:38;;;;;;;6.60;4.17;;;17.30;99.90;;;;;;5094390;28;20252;-79
2021/08/19 04:10:06;;;;;;;11.53;4.87;;;17.30;99.90;;;;;;5094305;28;20653;-79
2021/08/19 04:12:34;;;;;;;8.23;4.17;;;17.40;99.90;;;;;;5094163;28;20764;-80
2021/08/19 04:15:01;;;;;;;11.93;4.33;;;17.30;99.90;;;;;;5094493;28;20577;-80
2021/08/19 04:17:28;;;;;;;9.47;4.47;;;17.30;99.90;;;;;;5094128;28;20207;-78
2021/08/19 04:19:57;;;;;;;8.50;4.73;;;17.30;99.90;;;;;;5094307;28;20601;-81
2021/08/19 04:22:24;;;;;;;8.27;4.07;;;17.30;99.90;;;;;;5093868;28;20234;-78
2021/08/19 04:24:51;;;;;;;7.40;4.23;;;17.30;99.90;;;;;;5094282;28;20205;-80
2021/08/19 04:27:17;;;;;;;10.23;4.63;;;17.40;99.90;;;;;;5094082;28;20293;-79
2021/08/19 04:29:45;;;;;;;10.27;4.60;;;17.40;99.90;;;;;;5093782;28;20290;-78
2021/08/19 04:32:12;;;;;;;8.60;4.47;;;17.30;99.90;;;;;;5093613;28;20203;-81
2021/08/19 04:34:40;;;;;;;7.90;4.73;;;17.30;99.90;;;;;;5094036;28;20215;-79
2021/08/19 04:37:08;;;;;;;7.73;3.80;;;17.20;99.90;;;;;;5093352;28;20230;-78
2021/08/19 04:39:35;;;;;;;10.23;4.20;;;17.20;99.90;;;;;;5093575;28;20707;-79
2021/08/19 04:42:03;;;;;;;9.83;4.53;;;17.10;99.90;;;;;;5092580;28;20683;-78
2021/08/19 04:44:29;;;;;;;9.47;4.73;;;17.20;99.90;;;;;;5093042;28;20293;-78
2021/08/19 04:46:56;;;;;;;10.27;4.70;;;17.20;99.90;;;;;;5088872;28;20277;-80
2021/08/19 04:49:23;;;;;;;7.93;3.80;;;17.20;99.90;;;;;;5092787;28;20289;-78
2021/08/19 04:51:50;;;;;;;10.43;4.53;;;17.30;99.90;;;;;;5092820;28;20226;-79
2021/08/19 04:54:18;;;;;;;9.77;4.33;;;17.40;99.90;;;;;;5093200;28;20218;-78
2021/08/19 04:56:46;;;;;;;8.43;4.47;;;17.40;99.90;;;;;;5093074;28;20264;-79
2021/08/19 04:59:13;;;;;;;7.77;3.73;;;17.50;99.90;;;;;;5093331;28;20202;-79
2021/08/19 05:01:41;;;;;;;9.50;4.03;;;17.50;99.90;;;;;;5092789;28;20271;-78
2021/08/19 05:04:09;;;;;;;8.60;3.83;;;17.50;99.90;;;;;;5092711;28;20210;-79
2021/08/19 05:06:36;;;;;;;11.77;4.13;;;17.50;99.90;;;;;;5092621;28;20285;-78
2021/08/19 05:09:05;;;;;;;9.73;4.13;;;17.60;99.90;;;;;;5092680;28;20285;-79
2021/08/19 05:11:34;;;;;;;8.43;3.87;;;17.50;99.90;;;;;;5089507;28;20272;-79
2021/08/19 05:14:01;;;;;;;7.67;3.77;;;17.60;99.90;;;;;;5092580;28;20249;-78
2021/08/19 05:16:28;;;;;;;8.70;3.60;;;17.70;99.90;;;;;;5093457;28;20234;-78
2021/08/19 05:18:55;;;;;;;11.20;4.70;;;17.70;99.90;;;;;;5093580;28;20281;-77
2021/08/19 05:21:23;;;;;;;8.40;4.10;;;17.80;99.90;;;;;;5093322;28;20202;-78
2021/08/19 05:23:50;;;;;;;7.57;3.50;;;17.70;99.90;;;;;;5092870;28;20216;-78
2021/08/19 05:26:18;;;;;;;8.50;3.90;;;17.80;99.90;;;;;;5092876;28;20245;-79
2021/08/19 05:28:47;;;;;;;7.17;3.60;;;17.80;99.90;;;;;;5090881;28;20202;-78
2021/08/19 05:31:18;;;;;;;8.67;4.33;;;17.80;99.90;;;;;;5091117;28;20282;-80
2021/08/19 05:33:47;;;;;;;8.93;3.60;;;17.80;99.90;;;;;;5092455;28;20222;-79
2021/08/19 05:36:15;;;;;;;7.83;4.43;;;17.80;99.90;;;;;;5092204;28;20226;-78
2021/08/19 05:38:42;;;;;;;6.10;3.90;;;17.80;99.90;;;;;;5092094;28;20281;-79
2021/08/19 05:41:09;;;;;;;12.23;4.50;;;17.80;99.90;;;;;;5091983;28;20213;-79
2021/08/19 05:43:37;;;;;;;9.00;4.40;;;17.90;99.90;;;;;;5092299;28;20230;-80
2021/08/19 05:46:07;;;;;;;8.10;4.30;;;17.90;99.90;;;;;;5092422;28;20208;-79
2021/08/19 05:48:34;;;;;;;9.27;3.73;;;18.00;99.90;;;;;;5092594;28;20201;-79
2021/08/19 05:51:02;;;;;;;6.97;3.77;;;17.90;99.90;;;;;;5092265;28;20629;-80
2021/08/19 05:53:29;;;;;;;10.17;3.70;;;17.90;99.90;;;;;;5092162;28;20280;-80
2021/08/19 05:55:56;;;;;;;10.53;3.90;;;17.90;99.90;;;;;;5088388;28;20286;-79
2021/08/19 05:58:22;;;;;;;6.70;4.00;;;17.80;99.90;;;;;;5092166;28;20266;-75
2021/08/19 06:00:50;;;;;;;8.07;4.13;;;17.80;99.90;;;;;;5092254;28;20243;-79
2021/08/19 06:03:20;;;;;;;12.77;4.23;;;17.80;99.90;;;;;;5095062;28;20264;-79
2021/08/19 06:05:47;;;;;;;8.03;4.03;;;17.80;99.90;;;;;;5096098;28;20573;-77
2021/08/19 06:08:15;;;;;;;8.67;4.23;;;17.80;99.90;;;;;;5095985;28;20199;-80
2021/08/19 06:10:42;;;;;;;7.50;3.50;;;17.80;99.90;;;;;;5091169;28;20728;-77
2021/08/19 06:13:09;;;;;;;9.90;3.70;;;17.80;99.90;;;;;;5095483;28;20246;-78
2021/08/19 06:15:36;;;;;;;6.97;3.80;;;17.80;99.90;;;;;;5096877;28;20274;-76
2021/08/19 06:18:03;;;;;;;8.57;3.37;;;17.80;99.90;;;;;;5097057;28;20588;-77
2021/08/19 06:20:31;;;;;;;10.70;3.50;;;17.90;99.90;;;;;;5096284;28;21049;-77
2021/08/19 06:22:59;;;;;;;9.37;3.50;;;17.90;99.90;;;;;;5096862;28;20281;-78
2021/08/19 06:25:26;;;;;;;5.83;3.73;;;17.90;99.90;;;;;;5096419;28;20667;-78
2021/08/19 06:27:54;;;;;;;7.90;3.60;;;17.90;99.90;;;;;;5096928;28;20609;-79
2021/08/19 06:30:21;;;;;;;11.33;3.60;;;17.90;99.90;;;;;;5096486;28;20294;-78
2021/08/19 06:32:48;;;;;;;8.17;3.30;;;17.80;99.90;;;;;;5095978;28;20282;-78
2021/08/19 06:35:15;;;;;;;7.17;3.60;;;17.90;99.90;;;;;;5096272;28;20206;-76
2021/08/19 06:37:43;;;;;;;8.57;3.57;;;18.00;99.90;;;;;;5096461;28;20251;-77
2021/08/19 06:40:10;;;;;;;5.63;3.50;;;18.00;99.90;;;;;;5096426;28;20199;-77
2021/08/19 06:42:37;;;;;;;4.77;2.90;;;17.90;99.90;;;;;;5096338;28;20278;-78
2021/08/19 06:45:05;;;;;;;3.93;2.97;;;17.90;99.90;;;;;;5096050;28;20691;-77
2021/08/19 06:47:32;;;;;;;4.20;3.03;;;17.90;99.90;;;;;;5096001;28;20278;-78
2021/08/19 06:49:59;;;;;;;5.97;3.17;;;18.00;99.90;;;;;;5096489;28;20233;-78
2021/08/19 06:52:25;;;;;;;5.13;2.90;;;18.10;99.90;;;;;;5096185;28;20226;-77
2021/08/19 06:54:54;;;;;;;10.00;3.43;;;18.10;99.90;;;;;;5095749;28;20222;-80
2021/08/19 06:57:21;;;;;;;6.83;3.13;;;18.10;99.90;;;;;;5096103;28;20261;-78
2021/08/19 06:59:47;;;;;;;6.83;3.13;;;18.20;99.90;;;;;;5095772;28;20195;-78
2021/08/19 07:02:15;;;;;;;7.37;3.03;;;18.20;99.90;;;;;;5095979;28;20285;-78
2021/08/19 07:04:42;;;;;;;13.13;2.90;;;18.30;99.90;;;;;;5096057;28;20206;-77
2021/08/19 07:07:09;;;;;;;7.67;2.90;;;18.50;99.90;;;;;;5096055;28;20195;-79
2021/08/19 07:09:36;;;;;;;4.93;2.53;;;18.70;99.90;;;;;;5095824;28;20281;-78
2021/08/19 07:12:04;;;;;;;5.87;2.53;;;18.80;99.90;;;;;;5096107;28;20645;-78
2021/08/19 07:14:31;;;;;;;5.07;2.40;;;18.90;99.90;;;;;;5095071;28;20301;-79
2021/08/19 07:16:58;;;;;;;7.60;2.47;;;18.90;99.90;;;;;;5096157;28;20241;-78
2021/08/19 07:19:25;;;;;;;5.53;2.57;;;19.00;99.90;;;;;;5095812;28;20222;-77
2021/08/19 07:21:53;;;;;;;7.63;2.77;;;18.90;99.90;;;;;;5095368;28;20227;-77
2021/08/19 07:24:19;;;;;;;6.53;2.47;;;19.10;99.90;;;;;;5115482;27;20712;-80
2021/08/19 07:26:46;;;;;;;5.60;2.10;;;19.20;99.90;;;;;;5115585;28;20285;-78
2021/08/19 07:29:15;;;;;;;6.30;2.10;;;19.20;99.90;;;;;;5109615;28;20231;-79
2021/08/19 07:31:42;;;;;;;8.20;2.00;;;19.20;99.90;;;;;;5102056;28;20238;-77
2021/08/19 07:34:09;;;;;;;6.40;1.90;;;19.00;99.90;;;;;;5115484;28;20764;-79
2021/08/19 07:36:36;;;;;;;5.87;2.17;;;19.10;99.90;;;;;;5112160;28;20198;-78
2021/08/19 07:39:04;;;;;;;6.13;1.70;;;19.20;99.90;;;;;;5115261;28;20206;-77
2021/08/19 07:41:31;;;;;;;2.43;1.90;;;19.40;99.90;;;;;;5115684;28;20198;-78
2021/08/19 07:43:58;;;;;;;6.13;2.03;;;19.80;99.90;;;;;;5098738;28;20202;-80
2021/08/19 07:46:26;;;;;;;5.33;2.60;;;20.20;99.90;;;;;;5105854;28;20229;-77
2021/08/19 07:48:56;;;;;;;3.27;2.27;;;20.40;99.90;;;;;;5105719;28;20249;-79
2021/08/19 07:51:23;;;;;;;6.60;2.20;;;20.60;99.90;;;;;;5094839;28;20198;-79
2021/08/19 07:53:50;;;;;;;5.50;2.40;;;20.80;99.90;;;;;;5109969;28;20322;-78
2021/08/19 07:56:17;;;;;;;4.73;2.20;;;20.90;99.90;;;;;;5110205;28;20209;-79
2021/08/19 07:58:44;;;;;;;4.13;2.27;;;21.10;99.90;;;;;;5102989;28;20195;-78
2021/08/19 08:01:11;;;;;;;4.53;2.43;;;21.10;99.90;;;;;;5096833;28;20202;-78
2021/08/19 08:03:40;;;;;;;7.23;2.53;;;21.20;99.90;;;;;;5095648;28;20301;-78
2021/08/19 08:06:07;;;;;;;6.40;2.23;;;21.40;99.90;;;;;;5101058;28;20230;-77
2021/08/19 08:08:33;;;;;;;4.93;2.20;;;21.60;99.90;;;;;;5100350;28;20195;-78
2021/08/19 08:11:01;;;;;;;3.87;2.30;;;21.70;99.90;;;;;;5098337;28;20212;-78
2021/08/19 08:13:29;;;;;;;4.37;2.30;;;21.90;99.90;;;;;;5115135;28;20194;-81
2021/08/19 08:15:56;;;;;;;3.67;2.20;;;22.10;99.90;;;;;;5114017;28;20278;-77
2021/08/19 08:18:23;;;;;;;4.33;2.40;;;22.20;99.90;;;;;;5132510;28;20194;-78
2021/08/19 08:20:51;;;;;;;6.30;2.10;;;22.30;99.90;;;;;;5133040;27;20241;-79
2021/08/19 08:23:19;;;;;;;4.30;2.10;;;22.40;99.90;;;;;;5133783;28;20190;-77
2021/08/19 08:25:47;;;;;;;4.15;2.10;;;22.70;99.90;;;;;;5132854;28;20202;-79
2021/08/19 08:28:15;;;;;;;3.72;2.08;;;22.70;99.90;;;;;;5120322;28;20237;-78
2021/08/19 08:30:45;;;;;;;5.15;2.70;;;22.70;99.90;;;;;;5130337;28;20208;-77
2021/08/19 08:33:13;;;;;;;5.72;2.10;;;22.60;99.90;;;;;;5132218;28;20656;-77
2021/08/19 08:35:41;;;;;;;6.00;1.90;;;22.40;99.90;;;;;;5105509;28;20223;-80
2021/08/19 08:38:14;;;;;;;3.42;2.05;;;22.40;99.90;;;;;;5109465;28;20198;-77
2021/08/19 08:40:43;;;;;;;5.70;2.17;;;22.50;99.90;;;;;;5094709;28;20215;-79
2021/08/19 08:43:11;;;;;;;6.22;1.95;;;22.60;99.90;;;;;;5099400;28;20291;-79
2021/08/19 08:45:39;;;;;;;2.95;1.80;;;22.70;99.90;;;;;;5097829;28;20203;-78
2021/08/19 08:48:10;;;;;;;5.15;2.00;;;23.30;99.90;;;;;;5093729;28;20289;-78
2021/08/19 08:50:39;;;;;;;5.22;1.90;;;23.50;99.90;;;;;;5098212;28;20191;-78
2021/08/19 08:53:06;;;;;;;4.68;1.88;;;23.30;99.90;;;;;;5096172;28;20712;-77
2021/08/19 08:55:34;;;;;;;5.72;2.28;;;23.00;99.90;;;;;;5096345;28;20305;-78
2021/08/19 08:58:01;;;;;;;4.70;2.28;;;22.60;99.90;;;;;;5103577;28;20229;-77
2021/08/19 09:00:28;;;;;;;3.53;2.28;;;22.30;99.90;;;;;;5107862;28;20653;-79
2021/08/19 09:02:55;;;;;;;4.10;2.05;;;22.20;99.90;;;;;;5095094;28;20256;-79
2021/08/19 09:05:24;;;;;;;6.65;2.10;;;22.00;99.90;;;;;;5108307;28;20245;-78
2021/08/19 09:07:54;;;;;;;3.07;1.80;;;21.80;99.90;;;;;;5105571;28;20251;-79
2021/08/19 09:10:23;;;;;;;5.60;2.27;;;21.50;99.90;;;;;;5113813;28;20202;-78
2021/08/19 09:12:52;;;;;;;4.13;1.87;;;21.30;99.90;;;;;;5113600;28;20195;-78
2021/08/19 09:15:21;;;;;;;5.47;2.10;;;21.20;99.90;;;;;;5105877;28;20233;-77
2021/08/19 09:17:51;;;;;;;5.53;2.10;;;21.40;99.90;;;;;;5108492;28;20229;-78
2021/08/19 09:20:19;;;;;;;6.03;2.10;;;21.60;99.90;;;;;;5105172;28;20198;-77
2021/08/19 09:22:57;;;;;;;4.40;2.13;;;21.90;99.90;;;;;;5111416;28;20280;-78
2021/08/19 09:25:26;;;;;;;5.30;2.20;;;22.00;99.90;;;;;;5099337;28;20281;-80
2021/08/19 09:28:09;;;;;;;5.20;2.57;;;22.10;99.90;;;;;;5110957;28;20198;-80
2021/08/19 09:30:36;;;;;;;3.63;2.30;;;22.40;99.90;;;;;;5112243;28;20186;-80
2021/08/19 09:33:04;;;;;;;3.17;1.88;;;22.80;99.90;;;;;;5107884;28;20293;-80
2021/08/19 09:35:31;;;;;;;7.68;2.25;;;23.70;99.90;;;;;;5095398;28;20268;-80
2021/08/19 09:37:58;;;;;;;5.75;2.75;;;23.90;99.90;;;;;;5098164;28;20339;-79
2021/08/19 09:40:25;;;;;;;4.50;1.80;;;23.70;99.90;;;;;;5107362;28;20289;-82
2021/08/19 09:42:52;;;;;;;10.00;2.28;;;23.70;99.90;;;;;;5104887;28;20208;-80
2021/08/19 09:45:21;;;;;;;5.60;2.10;;;24.10;99.90;;;;;;5113417;28;20237;-80
2021/08/19 09:47:48;;;;;;;4.80;2.17;;;24.20;99.90;;;;;;5113244;28;20288;-79
2021/08/19 09:50:17;;;;;;;4.65;2.17;;;23.90;99.90;;;;;;5108618;28;20291;-78
2021/08/19 09:52:45;;;;;;;5.43;1.75;;;24.80;99.90;;;;;;5079087;28;20684;-79
2021/08/19 09:55:24;;;;;;;4.45;2.25;;;26.40;99.90;;;;;;5084078;28;20318;-80
2021/08/19 09:57:51;;;;;;;6.32;2.22;;;27.80;99.90;;;;;;5077882;28;20282;-79
2021/08/19 10:00:27;;;;;;;5.72;2.10;;;27.80;99.90;;;;;;5090746;28;20287;-81
2021/08/19 10:02:54;;;;;;;4.50;2.25;;;27.00;99.90;;;;;;5090006;28;20229;-78
2021/08/19 10:05:21;;;;;;;4.50;1.95;;;26.30;99.90;;;;;;5092096;28;20290;-80
2021/08/19 10:07:48;;;;;;;5.18;2.15;;;26.00;99.90;;;;;;5092448;28;20226;-78
2021/08/19 10:10:16;;;;;;;2.97;1.92;;;26.60;99.90;;;;;;5092151;28;20299;-80
2021/08/19 10:12:46;;;;;;;3.22;2.33;;;28.00;99.90;;;;;;5091974;28;20195;-78
2021/08/19 10:15:14;;;;;;;3.58;2.10;;;28.00;99.90;;;;;;5092411;28;20242;-78
2021/08/19 10:17:53;;;;;;;4.53;1.55;;;27.00;99.90;;;;;;5092354;28;20248;-80
2021/08/19 10:20:23;;;;;;;2.53;1.60;;;25.30;99.90;;;;;;5091943;28;20194;-79
2021/08/19 10:22:51;;;;;;;9.93;2.03;;;24.20;99.90;;;;;;5089882;28;20238;-81
2021/08/19 10:25:19;;;;;;;3.40;1.90;;;23.80;99.90;;;;;;5092131;28;20203;-79
2021/08/19 10:27:46;;;;;;;3.63;1.52;;;23.40;99.90;;;;;;5091770;28;20218;-80
2021/08/19 10:30:21;;;;;;;3.63;1.65;;;23.20;99.90;;;;;;5091649;28;20681;-79
2021/08/19 10:32:55;;;;;;;1.75;1.10;;;22.80;99.90;;;;;;5091249;28;20596;-77
2021/08/19 10:35:27;;;;;;;3.05;1.10;;;22.30;99.90;;;;;;5090932;28;20753;-80
2021/08/19 10:38:04;;;;;;;2.00;1.35;;;22.30;99.90;;;;;;5090567;28;20210;-76
2021/08/19 10:40:33;;;;;;;2.03;1.42;;;22.50;99.90;;;;;;5089588;28;20231;-77
2021/08/19 10:43:21;;;;;;;4.68;1.60;;;22.90;99.90;;;;;;5092612;28;20199;-78
2021/08/19 10:45:48;;;;;;;1.73;1.30;;;23.10;99.90;;;;;;5088832;28;20195;-77
2021/08/19 10:48:25;;;;;;;1.80;1.10;;;23.00;99.90;;;;;;5087803;28;20230;-77
2021/08/19 10:50:52;;;;;;;1.30;0.90;;;23.10;99.90;;;;;;5088456;28;20218;-77
2021/08/19 10:53:21;;;;;;;2.30;0.80;;;23.20;99.90;;;;;;5094387;28;20195;-77
2021/08/19 10:55:50;;;;;;;2.63;1.00;;;23.30;99.90;;;;;;5094953;28;20214;-78
2021/08/19 10:58:29;;;;;;;1.60;1.17;;;23.30;99.90;;;;;;5095000;28;20234;-79
2021/08/19 11:00:58;;;;;;;4.43;1.45;;;23.20;99.90;;;;;;5094924;28;20226;-77
2021/08/19 11:03:46;;;;;;;2.80;1.08;;;23.00;99.90;;;;;;5093059;28;20601;-78
2021/08/19 11:06:17;;;;;;;2.42;1.15;;;22.80;99.90;;;;;;5092305;28;20250;-77
2021/08/19 11:08:52;;;;;;;4.05;1.77;;;22.80;99.90;;;;;;5083705;28;20203;-79
2021/08/19 11:11:34;;;;;;;3.85;1.52;;;22.80;99.90;;;;;;5097547;28;20644;-80
2021/08/19 11:14:03;;;;;;;3.08;1.48;;;22.70;99.90;;;;;;5088871;28;20199;-79
2021/08/19 11:16:34;;;;;;;3.47;1.60;;;22.60;99.90;;;;;;5081087;28;20241;-79
2021/08/19 11:19:20;;;;;;;4.20;1.52;;;22.30;99.90;;;;;;5077695;28;20662;-77
2021/08/19 11:21:52;;;;;;;3.50;1.80;;;22.20;99.90;;;;;;5077797;28;20213;-77
2021/08/19 11:24:20;;;;;;;4.17;1.97;;;22.30;99.90;;;;;;5081177;28;20295;-77
2021/08/19 11:26:57;;;;;;;3.03;1.65;;;22.20;99.90;;;;;;5087903;28;20195;-79
2021/08/19 11:29:28;;;;;;;2.20;1.60;;;22.30;99.90;;;;;;5083296;28;20293;-79
2021/08/19 11:31:55;;;;;;;2.00;1.40;;;22.30;99.90;;;;;;5079442;28;20199;-78
2021/08/19 11:34:24;;;;;;;1.90;1.50;;;22.30;99.90;;;;;;5084982;28;20670;-79
2021/08/19 11:36:52;;;;;;;2.93;1.80;;;22.20;99.90;;;;;;5086251;28;20286;-80
2021/08/19 11:39:25;;;;;;;3.40;1.60;;;22.30;99.90;;;;;;5090235;28;20206;-79
2021/08/19 11:41:57;;;;;;;5.63;2.13;;;22.50;99.90;;;;;;5094689;28;20286;-77
2021/08/19 11:44:24;;;;;;;5.07;1.92;;;22.80;99.90;;;;;;5093761;28;20318;-79
2021/08/19 11:46:58;;;;;;;6.60;2.03;;;23.20;99.90;;;;;;5093278;28;20562;-77
2021/08/19 11:49:27;;;;;;;2.38;1.70;;;23.30;99.90;;;;;;5094212;28;20241;-79
2021/08/19 11:52:02;;;;;;;3.40;2.00;;;23.30;99.90;;;;;;5093947;28;20202;-77
2021/08/19 11:54:39;;;;;;;5.78;2.20;;;23.40;99.90;;;;;;5093629;28;20275;-77
2021/08/19 11:57:07;;;;;;;2.55;1.85;;;23.40;99.90;;;;;;5093898;28;20341;-76
2021/08/19 11:59:34;;;;;;;3.50;2.10;;;23.30;99.90;;;;;;5092786;28;20238;-78
2021/08/19 12:02:01;;;;;;;4.35;2.08;;;23.30;99.90;;;;;;5093147;28;20199;-80
2021/08/19 12:04:30;;;;;;;9.57;1.83;;;23.50;99.90;;;;;;5094215;28;20198;-78
2021/08/19 12:06:58;;;;;;;3.50;1.65;;;23.50;99.90;;;;;;5093384;28;20210;-79
2021/08/19 12:09:26;;;;;;;6.32;1.85;;;23.10;99.90;;;;;;5093175;28;20210;-79
2021/08/19 12:11:53;;;;;;;5.05;1.95;;;23.00;99.90;;;;;;5093345;28;20222;-80
2021/08/19 12:14:25;;;;;;;7.22;1.95;;;22.80;99.90;;;;;;5092946;28;20237;-78
2021/08/19 12:16:56;;;;;;;4.03;1.83;;;22.60;99.90;;;;;;5093604;28;20222;-78
2021/08/19 12:19:24;;;;;;;4.13;2.30;;;22.50;99.90;;;;;;5092763;28;20218;-79
2021/08/19 12:22:01;;;;;;;3.63;1.85;;;22.20;99.90;;;;;;5090697;28;20194;-77
2021/08/19 12:24:31;;;;;;;4.15;2.15;;;21.90;99.90;;;;;;5094122;28;20656;-77
2021/08/19 12:27:04;;;;;;;3.90;2.07;;;21.60;99.90;;;;;;5093883;28;20203;-79
2021/08/19 12:29:32;;;;;;;2.70;1.80;;;21.50;99.90;;;;;;5094273;28;20214;-78
2021/08/19 12:32:01;;;;;;;7.30;2.15;;;21.60;99.90;;;;;;5089229;28;20618;-77
2021/08/19 12:34:28;;;;;;;2.50;2.17;;;21.80;99.90;;;;;;5087826;28;20222;-78
2021/08/19 12:37:07;;;;;;;2.30;1.60;;;21.90;99.90;;;;;;5093452;28;20317;-78
2021/08/19 12:39:46;;;;;;;7.43;2.10;;;22.10;99.90;;;;;;5092313;28;20207;-75
2021/08/19 12:42:14;;;;;;;3.88;1.40;;;22.40;99.90;;;;;;5078886;28;20290;-77
2021/08/19 12:44:43;;;;;;;3.83;1.50;;;22.50;99.90;;;;;;5076924;28;20561;-79
2021/08/19 12:47:10;;;;;;;3.60;1.52;;;22.80;99.90;;;;;;5085346;28;20225;-76
2021/08/19 12:49:38;;;;;;;3.05;1.80;;;23.00;99.90;;;;;;5075078;28;20204;-77
2021/08/19 12:52:21;;;;;;;3.15;2.00;;;23.10;99.90;;;;;;5077099;28;20653;-80